Time;durP1;ratioP1;P1;durP2;ratioP2;P2;SDS_P1;SDS_P2;PMS_P1;PMS_P2;Temp;Humidity;BMP_temperature;BMP_pressure;BME280_temperature;BME280_humidity;BME280_pressure;Samples;Min_cycle;Max_cycle;Signal;HPM_P1;HPM_P2
2021/09/06 00:01:07;;;;;;;5.32;4.14;;;;;;;14.65;86.27;99799.16;2026746;77;23343;-78
2021/09/06 00:04:10;;;;;;;6.03;3.71;;;;;;;14.60;86.42;99798.38;2027251;79;20651;-78
2021/09/06 00:07:13;;;;;;;3.79;3.31;;;;;;;14.58;86.48;99799.28;2028271;79;20707;-78
2021/09/06 00:10:42;;;;;;;3.60;3.30;;;;;;;14.54;86.70;99794.97;2027869;79;20178;-78
2021/09/06 00:13:45;;;;;;;3.85;3.53;;;;;;;14.50;86.63;99799.38;2028113;79;20781;-78
2021/09/06 00:16:47;;;;;;;5.04;4.18;;;;;;;14.45;86.82;99793.34;2026984;77;20459;-78
2021/09/06 00:19:50;;;;;;;5.45;3.70;;;;;;;14.44;86.76;99800.31;2027080;79;20191;-78
2021/09/06 00:22:53;;;;;;;4.09;3.76;;;;;;;14.39;86.83;99796.03;2028968;79;20270;-78
2021/09/06 00:25:56;;;;;;;7.91;3.35;;;;;;;14.39;86.67;99801.25;2026886;79;20188;-78
2021/09/06 00:28:59;;;;;;;4.13;3.25;;;;;;;14.36;86.59;99804.78;2027256;79;20853;-78
2021/09/06 00:32:04;;;;;;;3.51;3.20;;;;;;;14.33;86.49;99806.53;2027267;77;20656;-78
2021/09/06 00:35:07;;;;;;;3.67;3.38;;;;;;;14.29;86.43;99802.25;2026788;79;20300;-78
2021/09/06 00:38:17;;;;;;;3.39;3.10;;;;;;;14.25;86.52;99800.56;2027752;79;20166;-78
2021/09/06 00:41:20;;;;;;;4.40;3.15;;;;;;;14.22;86.58;99798.84;2028763;79;20182;-78
2021/09/06 00:44:23;;;;;;;3.59;3.25;;;;;;;14.19;86.63;99796.28;2027679;79;20167;-78
2021/09/06 00:47:25;;;;;;;4.19;3.29;;;;;;;14.18;86.64;99807.59;2026830;77;23375;-78
2021/09/06 00:50:28;;;;;;;3.67;3.38;;;;;;;14.16;86.69;99806.75;2027249;79;20171;-78
2021/09/06 00:53:31;;;;;;;4.35;3.21;;;;;;;14.11;86.54;99805.94;2021336;79;20643;-78
2021/09/06 00:56:35;;;;;;;5.79;3.60;;;;;;;14.05;86.61;99809.50;2016397;80;20660;-78
2021/09/06 00:59:40;;;;;;;3.84;2.99;;;;;;;14.01;86.40;99809.56;2018288;80;20752;-78
2021/09/06 01:02:43;;;;;;;3.84;3.45;;;;;;;13.97;86.48;99811.31;2016535;77;22753;-78
2021/09/06 01:05:46;;;;;;;4.82;3.46;;;;;;;13.95;86.56;99807.88;2017125;80;20282;-79
2021/09/06 01:08:49;;;;;;;3.51;3.16;;;;;;;13.92;86.58;99810.50;2017562;80;20750;-78
2021/09/06 01:11:52;;;;;;;3.54;3.28;;;;;;;13.88;86.52;99808.84;2016890;80;20191;-78
2021/09/06 01:14:54;;;;;;;3.04;2.83;;;;;;;13.83;86.63;99808.88;2017222;80;20203;-78
2021/09/06 01:17:57;;;;;;;2.89;2.60;;;;;;;13.82;86.71;99811.47;2016407;77;20890;-78
2021/09/06 01:21:00;;;;;;;3.45;3.04;;;;;;;13.78;86.58;99800.22;2016965;80;20661;-78
2021/09/06 01:24:03;;;;;;;4.76;3.17;;;;;;;13.76;86.50;99804.59;2017125;80;20260;-78
2021/09/06 01:27:06;;;;;;;4.47;3.63;;;;;;;13.75;86.29;99804.63;2017091;80;20205;-78
2021/09/06 01:30:09;;;;;;;3.29;2.99;;;;;;;13.71;86.31;99806.41;2017191;80;20217;-78
2021/09/06 01:33:12;;;;;;;3.15;2.83;;;;;;;13.68;86.51;99800.34;2016154;77;33408;-78
2021/09/06 01:36:16;;;;;;;3.44;2.96;;;;;;;13.65;86.62;99810.84;2017044;80;20168;-78
2021/09/06 01:39:19;;;;;;;4.39;3.16;;;;;;;13.62;86.71;99803.88;2017763;80;20237;-78
2021/09/06 01:42:22;;;;;;;4.89;3.14;;;;;;;13.59;86.61;99806.50;2017689;80;20617;-78
2021/09/06 01:45:25;;;;;;;3.22;2.96;;;;;;;13.56;86.54;99811.78;2016542;80;20640;-78
2021/09/06 01:48:28;;;;;;;2.95;2.74;;;;;;;13.54;86.55;99811.78;2017933;80;20276;-78
2021/09/06 01:51:30;;;;;;;3.60;3.17;;;;;;;13.52;86.69;99812.69;2019756;79;20194;-79
2021/09/06 01:54:33;;;;;;;3.90;2.91;;;;;;;13.51;86.78;99811.81;2027654;79;20629;-78
2021/09/06 01:57:36;;;;;;;3.17;2.97;;;;;;;13.48;86.74;99809.25;2027182;79;20587;-79
2021/09/06 02:00:38;;;;;;;3.70;3.06;;;;;;;13.46;86.74;99812.72;2026382;77;26705;-78
2021/09/06 02:03:41;;;;;;;3.42;3.13;;;;;;;13.42;86.70;99811.03;2027850;79;20276;-79
2021/09/06 02:06:44;;;;;;;3.60;3.16;;;;;;;13.39;86.69;99817.13;2031642;79;20214;-79
2021/09/06 02:09:47;;;;;;;3.08;2.88;;;;;;;13.35;86.67;99812.84;2030063;79;20186;-78
2021/09/06 02:12:50;;;;;;;3.76;3.44;;;;;;;13.32;86.83;99814.63;2028810;79;20179;-78
2021/09/06 02:15:52;;;;;;;3.38;3.09;;;;;;;13.29;86.78;99813.75;2028085;77;24072;-78
2021/09/06 02:18:55;;;;;;;4.90;3.20;;;;;;;13.28;86.78;99808.53;2029412;79;20236;-79
2021/09/06 02:21:58;;;;;;;3.16;2.85;;;;;;;13.26;86.83;99816.38;2028294;79;20178;-78
2021/09/06 02:25:01;;;;;;;3.64;3.34;;;;;;;13.23;86.88;99808.59;2028215;79;20212;-78
2021/09/06 02:28:05;;;;;;;3.86;3.38;;;;;;;13.22;86.85;99808.59;2029221;79;20506;-78
2021/09/06 02:31:07;;;;;;;4.57;3.41;;;;;;;13.19;86.80;99804.28;2027438;77;26644;-78
2021/09/06 02:34:10;;;;;;;4.24;3.84;;;;;;;13.16;86.79;99814.72;2029936;79;20288;-78
2021/09/06 02:37:12;;;;;;;3.65;3.30;;;;;;;13.12;86.75;99809.53;2028932;79;20170;-78
2021/09/06 02:40:17;;;;;;;3.56;3.26;;;;;;;13.09;86.81;99812.13;2027616;79;20917;-78
2021/09/06 02:43:20;;;;;;;3.66;3.40;;;;;;;13.05;86.91;99813.91;2027738;79;20235;-78
2021/09/06 02:46:22;;;;;;;3.58;3.28;;;;;;;13.03;86.85;99813.06;2027681;77;20996;-78
2021/09/06 02:49:25;;;;;;;5.31;3.44;;;;;;;13.02;86.73;99813.94;2029270;79;21110;-78
2021/09/06 02:52:29;;;;;;;3.31;2.99;;;;;;;12.99;86.81;99813.97;2028854;79;20250;-78
2021/09/06 02:55:32;;;;;;;2.88;2.67;;;;;;;12.94;86.83;99819.22;2028659;79;20210;-79
2021/09/06 02:58:34;;;;;;;3.34;2.72;;;;;;;12.90;86.72;99812.28;2028734;80;20205;-78
2021/09/06 03:01:37;;;;;;;3.36;3.06;;;;;;;12.87;86.80;99816.66;2027236;77;23650;-78
2021/09/06 03:04:41;;;;;;;2.95;2.72;;;;;;;12.83;86.78;99822.78;2027421;80;20178;-78
2021/09/06 03:07:43;;;;;;;3.41;3.11;;;;;;;12.80;86.79;99818.44;2028200;79;20206;-78
2021/09/06 03:10:46;;;;;;;4.70;3.15;;;;;;;12.79;86.80;99816.72;2027715;79;20201;-78
2021/09/06 03:13:49;;;;;;;3.85;2.88;;;;;;;12.78;86.83;99806.31;2027987;80;20742;-78
2021/09/06 03:16:52;;;;;;;3.40;3.10;;;;;;;12.76;86.89;99811.53;2027217;77;21434;-78
2021/09/06 03:19:55;;;;;;;3.89;3.19;;;;;;;12.74;86.91;99810.66;2026887;80;20229;-78
2021/09/06 03:22:58;;;;;;;3.54;3.22;;;;;;;12.69;86.83;99815.03;2027465;79;20204;-78
2021/09/06 03:26:00;;;;;;;3.72;3.30;;;;;;;12.68;86.81;99815.91;2028306;79;20650;-78
2021/09/06 03:29:03;;;;;;;3.47;3.08;;;;;;;12.64;86.81;99809.84;2028098;79;20192;-79
2021/09/06 03:32:06;;;;;;;3.59;3.24;;;;;;;12.62;86.66;99801.19;2027501;77;27963;-79
2021/09/06 03:35:11;;;;;;;4.26;2.83;;;;;;;12.61;86.56;99807.28;2028094;79;20559;-78
2021/09/06 03:38:14;;;;;;;3.25;2.97;;;;;;;12.57;86.60;99810.78;2027256;79;20597;-78
2021/09/06 03:41:18;;;;;;;3.56;2.94;;;;;;;12.54;86.79;99807.31;2028287;80;20220;-78
2021/09/06 03:44:21;;;;;;;3.46;3.15;;;;;;;12.52;86.76;99814.25;2028407;80;20567;-79
2021/09/06 03:47:23;;;;;;;4.50;3.30;;;;;;;12.51;86.85;99808.19;2027632;78;22912;-78
2021/09/06 03:50:26;;;;;;;3.95;3.56;;;;;;;12.49;87.07;99806.47;2028738;79;20318;-78
2021/09/06 03:53:29;;;;;;;3.97;3.30;;;;;;;12.47;87.13;99803.88;2028236;79;20235;-78
2021/09/06 03:56:31;;;;;;;4.71;3.29;;;;;;;12.45;87.17;99805.63;2029069;79;20196;-79
2021/09/06 03:59:34;;;;;;;3.21;2.50;;;;;;;12.42;87.15;99805.66;2028230;79;20956;-78
2021/09/06 04:02:39;;;;;;;4.29;3.16;;;;;;;12.39;86.95;99811.75;2029094;77;26387;-78
2021/09/06 04:05:42;;;;;;;5.88;3.15;;;;;;;12.35;86.69;99811.75;2029377;79;20621;-78
2021/09/06 04:08:44;;;;;;;4.15;3.06;;;;;;;12.32;86.69;99812.63;2028324;79;20283;-78
2021/09/06 04:12:13;;;;;;;5.75;3.47;;;;;;;12.31;86.71;99815.25;2029467;79;20949;-78
2021/09/06 04:15:16;;;;;;;;;;;;;;;12.27;86.65;99808.31;2027080;79;20216;-78
2021/09/06 04:18:19;;;;;;;3.46;3.21;;;;;;;12.25;86.91;99821.34;2028130;77;24793;-78
2021/09/06 04:21:21;;;;;;;3.39;3.00;;;;;;;12.22;87.14;99823.09;2029114;79;20216;-79
2021/09/06 04:24:24;;;;;;;4.54;3.00;;;;;;;12.20;87.00;99824.81;2029418;79;20566;-78
2021/09/06 04:27:27;;;;;;;5.51;3.41;;;;;;;12.19;86.83;99825.69;2026603;79;20175;-79
2021/09/06 04:30:29;;;;;;;4.22;3.10;;;;;;;12.18;86.90;99824.84;2025713;77;21235;-78
2021/09/06 04:33:32;;;;;;;3.46;3.16;;;;;;;12.17;87.03;99833.50;2029947;79;20184;-78
2021/09/06 04:36:35;;;;;;;3.58;3.06;;;;;;;12.17;86.95;99830.91;2026915;79;20192;-79
2021/09/06 04:39:37;;;;;;;4.50;3.34;;;;;;;12.15;87.19;99832.66;2028083;79;20793;-79
2021/09/06 04:42:40;;;;;;;4.64;3.49;;;;;;;12.12;87.23;99834.41;2029262;79;20186;-79
2021/09/06 04:45:42;;;;;;;3.38;3.08;;;;;;;12.10;87.04;99840.50;2027371;77;21064;-79
2021/09/06 04:48:45;;;;;;;3.92;3.10;;;;;;;12.08;86.87;99838.78;2028369;79;20300;-78
2021/09/06 04:51:48;;;;;;;5.32;3.59;;;;;;;12.07;86.76;99850.06;2027687;79;20178;-77
2021/09/06 04:54:50;;;;;;;6.81;3.60;;;;;;;12.05;86.75;99846.59;2027120;79;20186;-77
2021/09/06 04:57:53;;;;;;;4.91;3.36;;;;;;;12.02;86.73;99849.19;2028404;79;20286;-78
2021/09/06 05:00:55;;;;;;;4.16;3.41;;;;;;;11.97;87.16;99850.94;2026751;77;24139;-77
2021/09/06 05:03:59;;;;;;;5.26;3.66;;;;;;;11.95;87.46;99857.88;2027581;79;20221;-76
2021/09/06 05:07:02;;;;;;;2.89;2.69;;;;;;;11.93;87.46;99857.03;2026691;79;20202;-76
2021/09/06 05:10:05;;;;;;;3.41;3.10;;;;;;;11.93;87.47;99854.44;2027514;79;20877;-77
2021/09/06 05:13:07;;;;;;;4.68;3.42;;;;;;;11.94;87.50;99858.75;2027737;79;20310;-77
2021/09/06 05:16:10;;;;;;;3.76;3.14;;;;;;;11.94;87.55;99863.97;2025395;77;21639;-76
2021/09/06 05:19:13;;;;;;;4.72;3.60;;;;;;;11.93;87.69;99868.31;2028088;79;20171;-77
2021/09/06 05:22:15;;;;;;;6.61;3.69;;;;;;;11.95;87.63;99866.56;2027347;79;20191;-76
2021/09/06 05:25:18;;;;;;;4.47;4.07;;;;;;;11.94;87.73;99867.44;2026560;79;20268;-78
2021/09/06 05:28:21;;;;;;;4.18;3.81;;;;;;;11.98;87.87;99870.88;2027125;79;20336;-76
2021/09/06 05:31:24;;;;;;;4.80;3.59;;;;;;;12.03;87.74;99870.03;2026129;77;22682;-76
2021/09/06 05:34:26;;;;;;;5.50;4.10;;;;;;;12.05;87.81;99876.09;2027727;79;20170;-77
2021/09/06 05:37:29;;;;;;;4.79;4.00;;;;;;;12.03;87.82;99879.56;2027047;79;20789;-78
2021/09/06 05:40:32;;;;;;;9.07;3.83;;;;;;;12.03;87.99;99883.03;2027070;79;20178;-77
2021/09/06 05:43:35;;;;;;;4.99;4.01;;;;;;;12.07;88.15;99881.28;2026750;79;20182;-77
2021/09/06 05:46:37;;;;;;;8.44;4.40;;;;;;;12.10;88.43;99886.47;2026466;77;21157;-77
2021/09/06 05:49:40;;;;;;;4.78;3.76;;;;;;;12.19;88.47;99889.03;2028361;79;20214;-77
2021/09/06 05:52:43;;;;;;;8.02;4.39;;;;;;;12.29;88.61;99885.56;2027372;79;20171;-77
2021/09/06 05:55:46;;;;;;;6.05;4.09;;;;;;;12.42;88.72;99894.19;2026551;79;20686;-77
2021/09/06 05:58:49;;;;;;;4.55;4.04;;;;;;;12.56;88.51;99904.53;2028107;79;20182;-76
2021/09/06 06:01:52;;;;;;;5.25;4.72;;;;;;;12.70;88.05;99901.00;2025514;79;21696;-76
2021/09/06 06:04:54;;;;;;;8.55;4.28;;;;;;;12.87;87.49;99897.44;2026440;79;20220;-76
2021/09/06 06:07:57;;;;;;;9.76;4.24;;;;;;;13.08;86.98;99904.25;2027113;79;21388;-76
2021/09/06 06:11:00;;;;;;;9.59;4.71;;;;;;;13.32;86.59;99903.28;2026901;79;20250;-76
2021/09/06 06:14:03;;;;;;;7.49;4.40;;;;;;;13.56;85.94;99903.94;2026699;79;20196;-76
2021/09/06 06:17:05;;;;;;;4.85;4.40;;;;;;;13.82;84.82;99901.13;2026275;77;22589;-76
2021/09/06 06:20:09;;;;;;;6.78;4.26;;;;;;;14.23;83.35;99906.81;2026855;79;20269;-76
2021/09/06 06:23:12;;;;;;;10.31;4.36;;;;;;;14.71;81.50;99903.63;2027030;79;20241;-77
2021/09/06 06:26:15;;;;;;;7.60;4.40;;;;;;;15.16;79.50;99903.88;2026495;79;20233;-76
2021/09/06 06:29:17;;;;;;;6.26;4.43;;;;;;;15.63;77.65;99913.66;2025145;79;20174;-75
2021/09/06 06:32:20;;;;;;;6.01;4.93;;;;;;;16.09;76.09;99902.34;2025863;77;25266;-76
2021/09/06 06:35:23;;;;;;;5.95;4.96;;;;;;;16.41;74.58;99909.59;2026938;79;20246;-76
2021/09/06 06:38:26;;;;;;;5.21;4.44;;;;;;;16.74;74.10;99908.09;2026851;79;20567;-76
2021/09/06 06:41:29;;;;;;;5.54;4.39;;;;;;;17.00;73.38;99912.75;2026831;79;20290;-75
2021/09/06 06:44:32;;;;;;;5.91;4.34;;;;;;;17.26;72.75;99913.94;2024976;79;20205;-75
2021/09/06 06:47:34;;;;;;;5.49;4.99;;;;;;;17.35;72.27;99914.56;2022907;77;23346;-76
2021/09/06 06:50:37;;;;;;;5.51;4.61;;;;;;;17.47;72.13;99916.06;2024451;79;20158;-75
2021/09/06 06:53:40;;;;;;;6.16;5.04;;;;;;;17.59;71.98;99920.97;2025240;79;20220;-76
2021/09/06 06:56:43;;;;;;;8.44;5.39;;;;;;;17.71;71.83;99925.97;2024683;79;20296;-76
2021/09/06 06:59:47;;;;;;;8.32;5.32;;;;;;;17.83;71.40;99916.94;2024693;79;20629;-76
2021/09/06 07:02:51;;;;;;;6.99;5.24;;;;;;;17.95;71.17;99924.47;2023698;77;22573;-76
2021/09/06 07:05:54;;;;;;;9.16;5.86;;;;;;;18.07;70.98;99928.56;2024548;79;20158;-76
2021/09/06 07:08:56;;;;;;;5.72;5.03;;;;;;;18.15;71.10;99926.63;2024554;79;21143;-76
2021/09/06 07:12:00;;;;;;;7.39;5.00;;;;;;;18.35;70.77;99932.19;2024115;79;20174;-76
2021/09/06 07:15:07;;;;;;;5.82;4.94;;;;;;;18.60;70.21;99931.50;2024287;79;20247;-75
2021/09/06 07:18:11;;;;;;;9.56;5.04;;;;;;;18.85;69.58;99929.94;2024120;79;20755;-75
2021/09/06 07:21:14;;;;;;;9.76;5.53;;;;;;;19.09;69.08;99930.09;2024618;80;20202;-76
2021/09/06 07:24:16;;;;;;;8.27;5.49;;;;;;;19.33;68.18;99935.44;2024948;79;20182;-75
2021/09/06 07:27:20;;;;;;;10.20;5.74;;;;;;;19.57;67.45;99933.00;2025053;79;20300;-76
2021/09/06 07:30:23;;;;;;;11.32;5.85;;;;;;;19.83;67.01;99940.88;2025332;79;20198;-76
2021/09/06 07:33:25;;;;;;;12.61;6.70;;;;;;;20.10;66.73;99943.50;2024950;78;27794;-76
2021/09/06 07:36:28;;;;;;;18.89;7.39;;;;;;;20.38;66.25;99953.94;2025754;79;20210;-76
2021/09/06 07:39:32;;;;;;;14.46;7.41;;;;;;;20.50;64.51;99946.50;2021046;79;20217;-76
2021/09/06 07:42:35;;;;;;;13.77;6.68;;;;;;;20.69;63.91;99957.25;2025573;79;20661;-76
2021/09/06 07:45:37;;;;;;;17.00;6.53;;;;;;;20.86;63.58;99956.63;2027113;77;24014;-76
2021/09/06 07:48:40;;;;;;;13.00;6.22;;;;;;;21.11;63.63;99957.41;2024651;79;20650;-76
2021/09/06 07:51:46;;;;;;;12.45;6.18;;;;;;;21.32;63.01;99965.44;2024790;79;20201;-75
2021/09/06 07:54:49;;;;;;;9.11;6.59;;;;;;;21.57;62.87;99966.22;2024587;79;20204;-76
2021/09/06 07:57:52;;;;;;;10.26;6.20;;;;;;;21.68;61.61;99963.97;2024237;79;20282;-76
2021/09/06 08:00:54;;;;;;;13.10;7.13;;;;;;;21.96;61.45;99965.50;2024436;77;23596;-76
2021/09/06 08:03:57;;;;;;;20.13;6.93;;;;;;;22.17;60.90;99969.03;2024282;79;20158;-76
2021/09/06 08:07:00;;;;;;;18.58;6.76;;;;;;;22.37;60.08;99971.69;2025618;79;20674;-76
2021/09/06 08:10:03;;;;;;;14.31;7.29;;;;;;;22.55;59.62;99970.88;2024655;79;21006;-75
2021/09/06 08:13:06;;;;;;;15.36;7.13;;;;;;;22.76;59.15;99971.69;2026109;79;20205;-76
2021/09/06 08:16:09;;;;;;;15.70;7.46;;;;;;;23.01;57.79;99971.50;2024109;79;20267;-75
2021/09/06 08:19:12;;;;;;;28.10;8.79;;;;;;;23.15;57.07;99976.13;2025185;79;20787;-76
2021/09/06 08:22:14;;;;;;;25.23;9.74;;;;;;;23.32;56.16;99980.63;2026050;79;20194;-76
2021/09/06 08:25:17;;;;;;;19.90;9.01;;;;;;;23.52;56.23;99984.09;2025770;79;20188;-76
2021/09/06 08:28:20;;;;;;;17.15;8.49;;;;;;;23.72;56.06;99987.59;2025295;79;20246;-75
2021/09/06 08:31:22;;;;;;;12.76;7.57;;;;;;;23.94;55.40;99984.72;2024110;77;22898;-76
2021/09/06 08:34:25;;;;;;;10.60;6.38;;;;;;;24.09;55.08;99986.63;2025461;79;20277;-75
2021/09/06 08:37:28;;;;;;;14.56;6.35;;;;;;;24.24;53.85;99982.34;2023145;79;20170;-76
2021/09/06 08:40:31;;;;;;;12.75;6.38;;;;;;;24.31;53.26;99986.41;2024136;79;20689;-75
2021/09/06 08:43:34;;;;;;;10.39;5.60;;;;;;;24.41;53.40;99990.31;2023735;79;20222;-75
2021/09/06 08:46:36;;;;;;;7.47;5.15;;;;;;;24.54;53.08;99994.03;2024174;77;20760;-76
2021/09/06 08:49:42;;;;;;;10.19;5.70;;;;;;;24.70;52.37;99994.09;2024202;79;20361;-76
2021/09/06 08:52:44;;;;;;;6.80;4.90;;;;;;;24.75;52.58;99993.84;2024486;79;20743;-76
2021/09/06 08:55:48;;;;;;;11.94;5.46;;;;;;;24.89;52.88;99986.88;2023836;79;20209;-76
2021/09/06 08:59:08;;;;;;;6.89;5.07;;;;;;;25.06;51.92;99990.44;2024008;79;20296;-77
2021/09/06 09:02:11;;;;;;;8.93;5.43;;;;;;;25.19;51.63;99987.03;2023686;77;23402;-77
2021/09/06 09:05:19;;;;;;;9.65;5.35;;;;;;;25.37;51.29;99979.84;2022420;79;20183;-76
2021/09/06 09:08:22;;;;;;;12.02;5.61;;;;;;;25.48;51.34;99976.56;2023380;79;20199;-76
2021/09/06 09:11:25;;;;;;;8.30;5.99;;;;;;;25.58;50.76;99986.59;2023901;79;20204;-76
2021/09/06 09:14:27;;;;;;;13.74;6.20;;;;;;;25.69;49.75;99986.03;2024286;79;20179;-76
2021/09/06 09:17:30;;;;;;;8.19;5.60;;;;;;;25.77;48.75;99991.75;2023344;77;24100;-76
2021/09/06 09:20:40;;;;;;;9.36;6.32;;;;;;;25.88;48.51;99989.34;2024174;79;20274;-77
2021/09/06 09:23:46;;;;;;;6.63;5.15;;;;;;;26.03;48.17;99986.72;2025409;79;20266;-76
2021/09/06 09:27:01;;;;;;;7.44;4.81;;;;;;;26.11;47.97;99990.66;2024785;79;20251;-76
2021/09/06 09:30:11;;;;;;;10.27;5.04;;;;;;;26.26;48.13;99988.91;2024258;79;20743;-77
2021/09/06 09:33:16;;;;;;;15.63;5.25;;;;;;;26.41;48.05;99982.69;2023437;77;22568;-76
2021/09/06 09:36:33;;;;;;;7.18;4.16;;;;;;;26.59;47.59;99985.19;2024106;79;20674;-77
2021/09/06 09:39:37;;;;;;;5.45;3.25;;;;;;;26.65;47.05;99990.16;2023972;79;21113;-76
2021/09/06 09:42:48;;;;;;;4.14;3.17;;;;;;;26.86;46.30;99978.16;2024310;79;20235;-78
2021/09/06 09:46:01;;;;;;;3.45;3.14;;;;;;;26.99;45.30;99984.44;2023689;77;25659;-77
2021/09/06 09:49:12;;;;;;;5.09;3.39;;;;;;;27.08;44.89;99981.22;2023343;79;20268;-77
2021/09/06 09:52:20;;;;;;;3.85;2.99;;;;;;;27.12;44.25;99973.91;2024350;79;20197;-76
2021/09/06 09:55:25;;;;;;;6.56;3.13;;;;;;;27.31;44.54;99987.78;2024111;79;21031;-77
2021/09/06 09:58:27;;;;;;;4.74;3.15;;;;;;;27.43;43.79;99983.44;2023741;79;20202;-77
2021/09/06 10:01:42;;;;;;;5.18;2.75;;;;;;;27.46;42.91;99980.56;2023061;77;20287;-77
2021/09/06 10:04:51;;;;;;;3.33;2.96;;;;;;;27.49;42.50;99985.72;2024060;79;20332;-77
2021/09/06 10:07:54;;;;;;;5.06;3.09;;;;;;;27.49;42.48;99982.22;2022268;79;20299;-79
2021/09/06 10:10:57;;;;;;;4.86;3.26;;;;;;;27.66;42.58;99982.00;2023362;79;20185;-77
2021/09/06 10:14:13;;;;;;;7.03;3.16;;;;;;;27.97;42.53;99970.13;2023446;79;20174;-76
2021/09/06 10:17:16;;;;;;;3.79;3.17;;;;;;;28.14;41.41;99979.69;2022242;77;22260;-77
2021/09/06 10:20:21;;;;;;;6.20;3.09;;;;;;;28.26;40.74;99982.41;2023716;79;21089;-77
2021/09/06 10:23:27;;;;;;;3.33;3.04;;;;;;;28.21;40.24;99979.16;2024613;79;20662;-77
2021/09/06 10:26:33;;;;;;;3.04;2.84;;;;;;;28.08;39.32;99980.09;2024361;79;20211;-76
2021/09/06 10:29:36;;;;;;;5.97;2.63;;;;;;;28.14;40.54;99969.84;2023616;79;20170;-76
2021/09/06 10:32:40;;;;;;;2.63;2.44;;;;;;;28.16;39.52;99972.41;2022478;77;21398;-77
2021/09/06 10:35:43;;;;;;;3.09;2.81;;;;;;;28.20;39.02;99969.44;2023243;79;21491;-76
2021/09/06 10:39:00;;;;;;;3.28;2.97;;;;;;;28.20;38.04;99965.94;2023189;79;20259;-76
2021/09/06 10:42:06;;;;;;;3.91;2.72;;;;;;;28.31;38.53;99965.22;2023304;79;20220;-76
2021/09/06 10:45:09;;;;;;;3.86;2.41;;;;;;;28.38;38.14;99963.84;2022407;79;20838;-76
2021/09/06 10:48:16;;;;;;;5.26;2.47;;;;;;;28.49;37.64;99956.78;2023433;77;20706;-77
2021/09/06 10:51:30;;;;;;;4.39;2.49;;;;;;;28.59;37.76;99962.34;2023277;79;20231;-76
2021/09/06 10:54:36;;;;;;;4.34;2.39;;;;;;;28.62;36.84;99951.44;2023440;80;20206;-76
2021/09/06 10:57:44;;;;;;;2.84;2.20;;;;;;;28.79;36.39;99958.28;2019376;80;20223;-76
2021/09/06 11:00:52;;;;;;;2.54;2.31;;;;;;;28.81;35.64;99953.66;2022408;77;20177;-77
2021/09/06 11:03:55;;;;;;;4.00;1.90;;;;;;;28.85;35.42;99944.47;2023165;80;20316;-76
2021/09/06 11:07:00;;;;;;;2.75;2.54;;;;;;;28.87;35.67;99945.22;2023789;79;20166;-77
2021/09/06 11:10:08;;;;;;;3.85;2.86;;;;;;;28.95;35.62;99950.91;2022534;80;20190;-77
2021/09/06 11:13:10;;;;;;;2.65;2.11;;;;;;;28.99;35.96;99947.03;2023431;79;20222;-76
2021/09/06 11:16:16;;;;;;;4.44;2.09;;;;;;;28.90;35.23;99955.72;2022265;77;24483;-77
2021/09/06 11:19:19;;;;;;;2.42;2.09;;;;;;;28.91;36.10;99948.56;2023487;79;20218;-76
2021/09/06 11:22:22;;;;;;;2.33;2.13;;;;;;;28.96;35.68;99951.75;2026115;79;20169;-76
2021/09/06 11:25:27;;;;;;;2.99;2.13;;;;;;;28.98;35.31;99942.66;2024365;80;20170;-76
2021/09/06 11:28:31;;;;;;;2.35;2.15;;;;;;;29.01;34.65;99946.94;2023587;80;20945;-76
2021/09/06 11:31:34;;;;;;;3.17;2.01;;;;;;;29.02;35.10;99954.00;2022685;76;20204;-76
2021/09/06 11:34:37;;;;;;;4.13;2.00;;;;;;;29.09;33.28;99939.22;2023590;80;20678;-76
2021/09/06 11:37:39;;;;;;;2.63;1.85;;;;;;;29.18;33.25;99947.44;2022399;80;20196;-76
2021/09/06 11:40:53;;;;;;;3.17;2.40;;;;;;;29.22;33.63;99939.16;2023810;80;20204;-77
2021/09/06 11:43:57;;;;;;;2.60;2.40;;;;;;;29.17;33.85;99937.69;2024217;80;20221;-76
2021/09/06 11:47:04;;;;;;;3.78;2.10;;;;;;;29.18;33.87;99930.53;2023644;77;20619;-77
2021/09/06 11:50:10;;;;;;;3.94;2.31;;;;;;;29.29;34.55;99927.06;2024562;80;20174;-77
2021/09/06 11:53:21;;;;;;;3.65;2.44;;;;;;;29.41;34.73;99931.50;2023502;79;20187;-76
2021/09/06 11:56:24;;;;;;;2.42;2.22;;;;;;;29.48;34.35;99930.97;2023937;80;20279;-76
2021/09/06 11:59:29;;;;;;;3.64;2.54;;;;;;;29.52;33.06;99925.41;2023661;80;20716;-76
2021/09/06 12:02:32;;;;;;;6.76;2.54;;;;;;;29.56;34.02;99927.72;2023077;77;21449;-76
2021/09/06 12:05:47;;;;;;;2.40;2.20;;;;;;;29.77;34.58;99934.16;2023427;80;20737;-77
2021/09/06 12:08:52;;;;;;;3.35;2.31;;;;;;;29.86;33.98;99931.75;2025476;79;20738;-76
2021/09/06 12:12:20;;;;;;;8.11;2.45;;;;;;;29.86;32.01;99935.28;2026547;80;20866;-76
2021/09/06 12:15:23;;;;;;;3.14;2.19;;;;;;;29.91;33.64;99941.16;2027574;79;21284;-77
2021/09/06 12:18:42;;;;;;;2.47;2.29;;;;;;;29.93;33.12;99924.94;2027750;79;20743;-76
2021/09/06 12:21:46;;;;;;;4.40;2.06;;;;;;;30.05;33.44;99932.94;2026233;79;20206;-76
2021/09/06 12:24:53;;;;;;;3.17;2.11;;;;;;;30.12;33.29;99929.78;2022769;79;21123;-77
2021/09/06 12:28:25;;;;;;;3.78;2.06;;;;;;;30.22;32.79;99922.75;2026662;79;21146;-76
2021/09/06 12:31:42;;;;;;;5.74;1.80;;;;;;;30.33;32.08;99920.94;2022691;77;22214;-76
2021/09/06 12:34:45;;;;;;;6.50;2.19;;;;;;;30.34;31.67;99921.78;2026488;79;20210;-77
2021/09/06 12:37:49;;;;;;;1.99;1.81;;;;;;;30.29;31.65;99929.34;2027148;79;20243;-76
2021/09/06 12:40:52;;;;;;;2.09;1.95;;;;;;;30.22;31.88;99926.28;2026239;79;20178;-76
2021/09/06 12:43:55;;;;;;;3.00;2.05;;;;;;;29.81;32.39;99926.75;2026300;79;20199;-76
2021/09/06 12:46:58;;;;;;;2.36;2.16;;;;;;;29.35;33.48;99924.78;2025470;77;21017;-77
2021/09/06 12:50:01;;;;;;;2.74;2.00;;;;;;;28.83;33.88;99931.19;2025918;79;20218;-77
2021/09/06 12:53:05;;;;;;;3.38;1.74;;;;;;;28.38;35.32;99929.13;2026037;79;20220;-77
2021/09/06 12:56:11;;;;;;;2.33;1.70;;;;;;;28.18;34.25;99923.28;2026504;79;20268;-77
2021/09/06 12:59:14;;;;;;;7.43;2.04;;;;;;;28.43;34.48;99925.16;2026163;79;20227;-76
2021/09/06 13:02:16;;;;;;;2.42;2.03;;;;;;;28.69;35.30;99927.78;2025840;77;23121;-76
2021/09/06 13:05:19;;;;;;;2.91;2.00;;;;;;;28.95;34.62;99918.81;2025376;79;20170;-77
2021/09/06 13:08:22;;;;;;;2.20;2.00;;;;;;;29.25;34.53;99917.53;2029679;79;20192;-76
2021/09/06 13:11:25;;;;;;;2.00;1.80;;;;;;;29.45;33.77;99922.31;2026210;79;20204;-75
2021/09/06 13:14:32;;;;;;;5.26;1.65;;;;;;;29.65;34.08;99918.16;2025388;79;20202;-76
2021/09/06 13:17:36;;;;;;;4.19;1.83;;;;;;;29.75;33.28;99919.16;2024733;77;20754;-75
2021/09/06 13:20:39;;;;;;;3.60;1.94;;;;;;;29.76;31.29;99911.03;2026031;79;20668;-75
2021/09/06 13:23:42;;;;;;;2.80;2.05;;;;;;;29.66;32.37;99910.03;2026550;79;20235;-75
2021/09/06 13:26:45;;;;;;;1.96;1.86;;;;;;;29.79;33.55;99910.78;2026024;79;20520;-76
2021/09/06 13:29:47;;;;;;;3.50;2.28;;;;;;;29.83;34.17;99907.91;2025959;79;20230;-76
2021/09/06 13:32:50;;;;;;;4.40;1.70;;;;;;;29.75;33.10;99912.00;2025459;77;20346;-76
2021/09/06 13:35:53;;;;;;;5.39;1.77;;;;;;;29.47;32.70;99902.50;2026319;79;20190;-76
2021/09/06 13:38:59;;;;;;;1.74;1.64;;;;;;;29.34;33.97;99898.16;2028022;79;20302;-76
2021/09/06 13:42:01;;;;;;;1.84;1.74;;;;;;;29.39;34.07;99906.69;2025633;79;20162;-75
2021/09/06 13:45:06;;;;;;;1.94;1.74;;;;;;;29.28;32.63;99896.78;2025959;79;20269;-76
2021/09/06 13:48:08;;;;;;;2.01;1.91;;;;;;;29.42;33.94;99904.63;2025857;77;22848;-76
2021/09/06 13:51:11;;;;;;;2.30;1.80;;;;;;;29.48;32.92;99890.84;2024980;79;20167;-76
2021/09/06 13:54:14;;;;;;;2.45;2.00;;;;;;;29.48;32.56;99901.53;2025228;79;20178;-76
2021/09/06 13:57:16;;;;;;;3.26;1.74;;;;;;;29.47;32.85;99899.84;2025842;79;20186;-75
2021/09/06 14:00:19;;;;;;;1.75;1.59;;;;;;;29.26;33.06;99901.38;2024698;79;20178;-76
2021/09/06 14:03:22;;;;;;;2.78;1.56;;;;;;;29.03;33.42;99891.50;2024908;77;32995;-76
2021/09/06 14:06:25;;;;;;;2.84;1.99;;;;;;;28.86;34.22;99890.91;2024798;79;20178;-75
2021/09/06 14:09:30;;;;;;;2.65;1.70;;;;;;;28.92;36.01;99892.31;2025406;79;20216;-76
2021/09/06 14:12:33;;;;;;;1.85;1.50;;;;;;;28.68;35.00;99896.69;2025877;79;20179;-76
2021/09/06 14:15:38;;;;;;;1.65;1.46;;;;;;;28.47;35.95;99894.56;2025259;79;21053;-76
2021/09/06 14:18:41;;;;;;;4.44;1.45;;;;;;;28.37;35.81;99892.66;2025710;79;20218;-75
2021/09/06 14:21:44;;;;;;;3.21;1.56;;;;;;;28.28;35.08;99887.00;2025128;79;20231;-75
2021/09/06 14:24:46;;;;;;;1.69;1.58;;;;;;;28.40;34.67;99884.44;2025759;79;20192;-76